createdAt,value
2022-11-12T00:04:09.578Z,81.26
2022-11-12T00:09:30.049Z,81.92
2022-11-12T00:14:55.358Z,82.39
2022-11-12T00:20:15.793Z,82.62
2022-11-12T00:25:36.634Z,82.94
2022-11-12T00:30:57.350Z,83.15
2022-11-12T00:36:17.686Z,83.07
2022-11-12T00:41:37.943Z,82.88
2022-11-12T00:46:58.459Z,81.78
2022-11-12T00:52:19.070Z,81.85
2022-11-12T00:57:39.640Z,81.63
2022-11-12T01:02:59.856Z,81.62
2022-11-12T01:08:20.258Z,81.58
2022-11-12T01:13:44.359Z,81.65
2022-11-12T01:19:06.920Z,81.93
2022-11-12T01:24:27.533Z,81.74
2022-11-12T01:29:48.030Z,81.90
2022-11-12T01:35:08.468Z,81.99
2022-11-12T01:40:28.652Z,82.23
2022-11-12T01:45:50.045Z,82.46
2022-11-12T01:51:11.825Z,82.75
2022-11-12T01:56:32.422Z,82.80
2022-11-12T02:01:52.910Z,82.77
2022-11-12T02:07:13.130Z,82.85
2022-11-12T02:12:52.601Z,82.93
2022-11-12T02:18:12.998Z,82.92
2022-11-12T02:23:33.205Z,83.07
2022-11-12T02:28:53.318Z,83.13
2022-11-12T02:34:13.873Z,83.30
2022-11-12T02:39:34.303Z,83.33
2022-11-12T02:44:55.130Z,83.32
2022-11-12T02:50:15.533Z,83.36
2022-11-12T02:55:35.993Z,83.46
2022-11-12T03:00:57.046Z,83.69
2022-11-12T03:06:19.088Z,83.56
2022-11-12T03:11:39.364Z,83.28
2022-11-12T03:17:00.016Z,83.12
2022-11-12T03:22:20.440Z,83.07
2022-11-12T03:27:40.913Z,83.06
2022-11-12T03:33:01.686Z,83.17
2022-11-12T03:38:21.857Z,83.05
2022-11-12T03:43:42.488Z,83.04
2022-11-12T03:49:02.888Z,83.08
2022-11-12T03:54:23.580Z,83.10
2022-11-12T03:59:43.870Z,83.19
2022-11-12T04:05:24.558Z,83.35
2022-11-12T04:10:44.852Z,83.40
2022-11-12T04:16:26.295Z,83.46
2022-11-12T04:21:51.481Z,83.47
2022-11-12T04:27:16.751Z,83.50
2022-11-12T04:32:38.790Z,83.53
2022-11-12T04:37:59.158Z,83.52
2022-11-12T04:43:38.222Z,83.37
2022-11-12T04:48:58.518Z,83.37
2022-11-12T04:54:19.178Z,83.38
2022-11-12T04:59:39.699Z,83.47
2022-11-12T05:05:00.230Z,83.61
2022-11-12T05:10:20.686Z,83.40
2022-11-12T05:15:43.356Z,83.31
2022-11-12T05:21:23.712Z,83.33
2022-11-12T05:26:44.123Z,83.39
2022-11-12T05:32:05.030Z,83.37
2022-11-12T05:37:25.212Z,83.48
2022-11-12T05:42:45.827Z,83.57
2022-11-12T05:48:06.343Z,83.62
2022-11-12T05:53:26.568Z,83.72
2022-11-12T05:58:47.153Z,83.79
2022-11-12T06:04:07.775Z,83.77
2022-11-12T06:09:27.950Z,83.76
2022-11-12T06:14:48.336Z,83.75
2022-11-12T06:20:08.940Z,83.75
2022-11-12T06:25:29.073Z,83.80
2022-11-12T06:30:49.540Z,83.85
2022-11-12T06:36:10.802Z,83.82
2022-11-12T06:41:31.189Z,83.74
2022-11-12T06:46:51.641Z,83.58
2022-11-12T06:52:16.359Z,83.41
2022-11-12T06:57:37.455Z,83.31
2022-11-12T07:02:57.938Z,83.27
2022-11-12T07:08:18.602Z,83.26
2022-11-12T07:13:39.386Z,83.13
2022-11-12T07:18:59.859Z,83.03
2022-11-12T07:24:19.973Z,83.03
2022-11-12T07:29:47.922Z,82.94
2022-11-12T07:35:08.662Z,82.52
2022-11-12T07:40:29.036Z,82.34
2022-11-12T07:45:49.457Z,82.37
2022-11-12T07:51:15.800Z,82.12
2022-11-12T07:56:35.907Z,81.96
2022-11-12T08:01:56.516Z,81.85
2022-11-12T08:07:17.262Z,81.69
2022-11-12T08:12:37.799Z,81.19
2022-11-12T08:17:58.677Z,81.04
2022-11-12T08:23:18.898Z,80.95
2022-11-12T08:28:39.973Z,79.38
2022-11-12T08:34:12.184Z,79.34
2022-11-12T08:39:33.093Z,79.16
2022-11-12T08:44:53.163Z,78.49
2022-11-12T08:50:13.713Z,78.41
2022-11-12T08:55:34.709Z,78.48
2022-11-12T09:00:56.023Z,77.93
2022-11-12T09:06:16.761Z,75.32
2022-11-12T09:11:37.084Z,76.13
2022-11-12T09:16:57.440Z,75.30
2022-11-12T09:22:17.590Z,73.01
2022-11-12T09:27:38.012Z,71.99
2022-11-12T09:32:59.108Z,71.45
2022-11-12T09:38:19.940Z,70.35
2022-11-12T09:43:45.753Z,69.73
2022-11-12T09:49:15.072Z,68.69
2022-11-12T09:54:35.509Z,67.80
2022-11-12T09:59:57.110Z,67.45
2022-11-12T10:05:17.371Z,67.17
2022-11-12T10:10:44.866Z,64.99
2022-11-12T10:16:32.206Z,64.82
2022-11-12T10:21:58.539Z,67.71
2022-11-12T10:27:20.584Z,66.04
2022-11-12T10:32:43.351Z,70.82
2022-11-12T10:38:11.800Z,66.63
2022-11-12T10:43:32.080Z,66.39
2022-11-12T10:49:07.161Z,65.20
2022-11-12T10:54:27.608Z,65.21
2022-11-12T10:59:47.835Z,62.57
2022-11-12T11:05:28.231Z,62.58
2022-11-12T11:10:48.615Z,65.66
2022-11-12T11:16:12.597Z,65.52
2022-11-12T11:21:41.714Z,61.71
2022-11-12T11:27:28.689Z,60.74
2022-11-12T11:33:03.418Z,60.47
2022-11-12T11:38:30.645Z,63.20
2022-11-12T11:43:57.957Z,59.41
2022-11-12T11:49:30.783Z,58.60
2022-11-12T11:54:53.819Z,61.08
2022-11-12T12:00:19.547Z,68.33
2022-11-12T12:05:42.696Z,65.40
2022-11-12T12:11:09.282Z,65.12
2022-11-12T12:16:52.213Z,58.63
2022-11-12T12:22:17.528Z,59.37
2022-11-12T12:27:42.967Z,59.32
2022-11-12T12:33:15.599Z,61.54
2022-11-12T12:38:38.710Z,63.00
2022-11-12T12:44:02.999Z,58.80
2022-11-12T12:49:29.658Z,58.19
2022-11-12T12:54:52.743Z,58.60
2022-11-12T13:00:33.239Z,60.19
2022-11-12T13:06:06.804Z,63.53
2022-11-12T13:12:01.650Z,60.29
2022-11-12T13:17:40.834Z,59.71
2022-11-12T13:23:01.757Z,62.80
2022-11-12T13:28:22.167Z,62.12
2022-11-12T13:33:42.767Z,60.66
2022-11-12T13:39:12.552Z,59.91
2022-11-12T13:44:35.267Z,62.73
2022-11-12T13:49:58.689Z,61.51
2022-11-12T13:55:20.495Z,62.07
2022-11-12T14:00:40.788Z,62.45
2022-11-12T14:06:06.354Z,61.73
2022-11-12T14:11:54.604Z,61.24
2022-11-12T14:17:22.032Z,61.99
2022-11-12T14:22:44.318Z,60.82
2022-11-12T14:28:05.464Z,60.88
2022-11-12T14:33:26.998Z,61.00
2022-11-12T14:38:49.726Z,60.87
2022-11-12T14:44:13.714Z,61.18
2022-11-12T14:49:44.470Z,61.79
2022-11-12T14:55:11.885Z,62.07
2022-11-12T15:00:32.282Z,62.91
2022-11-12T15:05:54.348Z,63.12
2022-11-12T15:11:21.438Z,63.55
2022-11-12T15:16:43.272Z,63.60
2022-11-12T15:22:04.609Z,63.95
2022-11-12T15:27:35.452Z,64.44
2022-11-12T15:33:09.714Z,64.88
2022-11-12T15:38:35.908Z,65.42
2022-11-12T15:43:56.848Z,65.94
2022-11-12T15:49:17.162Z,66.41
2022-11-12T15:54:41.015Z,66.92
2022-11-12T16:00:07.916Z,67.47
2022-11-12T16:05:28.922Z,67.90
2022-11-12T16:10:49.686Z,68.40
2022-11-12T16:16:10.876Z,68.95
2022-11-12T16:21:31.284Z,69.44
2022-11-12T16:26:52.133Z,70.03
2022-11-12T16:32:14.004Z,70.61
2022-11-12T16:37:34.624Z,70.95
2022-11-12T16:42:55.167Z,71.33
2022-11-12T16:48:18.450Z,71.73
2022-11-12T16:53:38.955Z,72.11
2022-11-12T16:58:59.875Z,72.53
2022-11-12T17:04:20.185Z,73.00
2022-11-12T17:09:40.502Z,73.44
2022-11-12T17:15:00.662Z,73.92
2022-11-12T17:20:21.379Z,74.28
2022-11-12T17:25:41.569Z,74.60
2022-11-12T17:31:02.841Z,75.04
2022-11-12T17:36:24.580Z,75.49
2022-11-12T17:41:44.798Z,75.81
2022-11-12T17:47:05.251Z,76.15
2022-11-12T17:52:25.505Z,76.35
2022-11-12T17:57:48.518Z,75.33
2022-11-12T18:03:09.007Z,75.28
2022-11-12T18:08:29.774Z,75.78
2022-11-12T18:13:50.374Z,76.40
2022-11-12T18:19:11.320Z,77.04
2022-11-12T18:24:31.564Z,77.57
2022-11-12T18:29:52.290Z,78.16
2022-11-12T18:35:12.652Z,78.03
2022-11-12T18:40:33.338Z,77.53
2022-11-12T18:45:54.433Z,76.53
2022-11-12T18:51:16.021Z,77.32
2022-11-12T18:56:38.351Z,77.64
2022-11-12T19:01:59.118Z,77.88
2022-11-12T19:07:19.549Z,78.84
2022-11-12T19:12:40.172Z,79.42
2022-11-12T19:18:01.503Z,79.96
2022-11-12T19:23:22.113Z,80.10
2022-11-12T19:28:42.981Z,80.38
2022-11-12T19:34:03.449Z,80.68
2022-11-12T19:39:24.154Z,80.15
2022-11-12T19:44:44.566Z,79.22
2022-11-12T19:50:05.181Z,78.96
2022-11-12T19:55:25.824Z,79.70
2022-11-12T20:00:46.520Z,78.72
2022-11-12T20:06:08.926Z,77.55
2022-11-12T20:11:29.304Z,77.37
2022-11-12T20:16:50.350Z,77.62
2022-11-12T20:22:11.083Z,77.98
2022-11-12T20:27:31.551Z,78.88
2022-11-12T20:32:52.031Z,79.90
2022-11-12T20:38:12.255Z,80.87
2022-11-12T20:43:33.146Z,81.14
2022-11-12T20:48:54.926Z,81.08
2022-11-12T20:54:15.775Z,80.93
2022-11-12T20:59:41.188Z,81.44
2022-11-12T21:05:01.403Z,81.62
2022-11-12T21:10:22.114Z,81.73
2022-11-12T21:15:45.723Z,82.13
2022-11-12T21:21:13.094Z,82.57
2022-11-12T21:26:33.451Z,82.39
2022-11-12T21:31:54.084Z,82.42
2022-11-12T21:37:14.243Z,82.38
2022-11-12T21:42:34.970Z,82.35
2022-11-12T21:47:55.110Z,82.43
2022-11-12T21:53:15.354Z,82.34
2022-11-12T21:58:35.821Z,82.46
2022-11-12T22:03:57.168Z,82.31
2022-11-12T22:09:22.271Z,82.29
2022-11-12T22:14:42.499Z,82.62
2022-11-12T22:20:03.499Z,82.30
2022-11-12T22:25:23.695Z,82.32
2022-11-12T22:30:45.619Z,82.11
2022-11-12T22:36:11.025Z,82.24
2022-11-12T22:41:31.991Z,82.34
2022-11-12T22:46:52.473Z,82.32
2022-11-12T22:52:13.080Z,82.34
2022-11-12T22:57:33.673Z,82.59
2022-11-12T23:02:54.202Z,82.67
2022-11-12T23:08:14.800Z,82.81
2022-11-12T23:13:35.119Z,82.65
2022-11-12T23:18:55.915Z,82.53
2022-11-12T23:24:16.016Z,82.35
2022-11-12T23:29:37.495Z,82.30
2022-11-12T23:34:57.992Z,82.28
2022-11-12T23:40:18.649Z,82.20
2022-11-12T23:45:39.407Z,82.20
2022-11-12T23:51:04.008Z,82.21
2022-11-12T23:56:24.445Z,82.16
